KLAN

Capital Region International Airport

Lansing, Michigan, USA
METAR KLAN 180253Z 15003KT 4SM BR FEW010 FEW095 M01/M01 A3002 RMK AO2 SLP175 T10061011 56000
Observed Flight Rules
Dec-18 @ 02:53 UTC (28 minutes ago) Marginal Visual Flight Rules
Wind Visibility Clouds Conditions
150° at 3 knots 4 miles
  • Few at 1,000' AGL
  • Few at 9,500' AGL
  • Mist
Temperatures Readings
Current -1°C / 30°F
Dewpoint -1°C / 30°F
Humidity 100%
Altimeter 30.02" Hg
Pressure 1017.5 hPa
Elevation 264
METAR KLAN 180253Z 15003KT 4SM BR FEW010 FEW095 M01/M01 A3002 RMK AO2 SLP175 T10061011 56000
Observed Flight Rules
Dec-18 @ 02:53 UTC
(28 minutes ago)
MVFR
Wind Visibility
150° at 3 knots 4 miles
Clouds
  • Few at 1,000' AGL
  • Few at 9,500' AGL
Conditions
  • Mist
Temperature Dewpoint
-1°C / 30°F -1°C / 30°F
Humidity Altimeter Pressure
100% 30.02" Hg 1017.5 hPa